Terminal Aerodrome Forecast
Issued by NWS

Home | Current Version | Previous Version | Text Only | Print | Product List | Glossary On
Versions: 1 2 3 4 5 6 7 8 9 10 11 12 13
000
FTUS44 KTSA 282327
TAFMLC
TAF
KMLC 282327Z 2900/2924 05007KT P6SM SCT250
     FM290800 06007KT P6SM OVC050
      TEMPO 2909/2913 4SM TS OVC025CB
     FM291300 07007KT 6SM -TSRA OVC015CB
      TEMPO 2913/2917 4SM -TSRA OVC007CB
     FM291700 10007KT 4SM -TSRA OVC015CB=

USA.gov is the U.S. government's official web portal to all federal, state and local government web resources and services.